sim
Sign-in with your pilot id or email,
or register
Callsign
Passwort

Schedule Details

Flight Number: DLH1837
Departure: Fuerteventura Airport (GCFV) at 13:35
Arrival: Munich Airport (EDDM) at 18:05
Route: Lufthansa Passenger Schedule. Enter filed route here before submitting Pirep.

Weather Information
Getting current METAR information for GCFV 160330Z AUTO 28005KT 9999 NCD 14/11 Q1017
Getting current METAR information for EDDM 160320Z VRB01KT 3000 0800N R08L/0350V0600N R08R/0325V0500N BCFG NSC M04/M04 Q1029 NOSIG

Schedule Frequency

Route Map